Time;durP1;ratioP1;P1;durP2;ratioP2;P2;SDS_P1;SDS_P2;PMS_P1;PMS_P2;Temp;Humidity;BMP_temperature;BMP_pressure;BME280_temperature;BME280_humidity;BME280_pressure;Samples;Min_cycle;Max_cycle;Signal;HPM_P1;HPM_P2
2023/08/17 00:00:43;;;;;;;4.97;2.70;;;;;;;;;;4979940;28;20192;-74
2023/08/17 00:03:22;;;;;;;6.27;2.60;;;;;;;;;;5013383;28;20216;-80
2023/08/17 00:05:59;;;;;;;5.23;2.57;;;;;;;;;;4988240;28;20197;-79
2023/08/17 00:11:34;;;;;;;4.63;2.40;;;;;;;;;;4970820;28;20206;-80
2023/08/17 00:14:23;;;;;;;3.77;2.47;;;;;;;;;;5004938;28;20225;-80
2023/08/17 00:16:52;;;;;;;6.73;2.50;;;;;;;;;;5011355;28;20217;-80
2023/08/17 00:19:39;;;;;;;4.83;2.40;;;;;;;;;;4996897;28;20189;-74
2023/08/17 00:22:34;;;;;;;7.50;2.70;;;;;;;;;;4996519;28;20201;-74
2023/08/17 00:25:18;;;;;;;4.17;2.37;;;;;;;;;;4996675;28;20193;-75
2023/08/17 00:28:01;;;;;;;4.80;2.40;;;;;;;;;;4981584;28;20216;-74
2023/08/17 00:30:42;;;;;;;6.03;2.30;;;;;;;;;;4978221;28;20203;-75
2023/08/17 00:33:09;;;;;;;4.43;2.60;;;;;;;;;;4980552;28;20196;-74
2023/08/17 00:36:04;;;;;;;6.83;2.60;;;;;;;;;;4996704;28;20185;-76
2023/08/17 00:38:55;;;;;;;5.40;2.53;;;;;;;;;;4996224;28;20189;-76
2023/08/17 00:41:34;;;;;;;5.50;2.47;;;;;;;;;;4947747;28;20215;-76
2023/08/17 00:44:00;;;;;;;7.37;2.80;;;;;;;;;;4958392;28;20205;-76
2023/08/17 00:46:28;;;;;;;5.87;3.00;;;;;;;;;;4972978;28;20226;-76
2023/08/17 00:51:57;;;;;;;3.67;2.30;;;;;;;;;;4943400;29;20186;-76
2023/08/17 00:54:31;;;;;;;6.40;2.87;;;;;;;;;;4937754;29;20231;-76
2023/08/17 00:57:08;;;;;;;6.07;2.60;;;;;;;;;;4934091;29;20195;-76
2023/08/17 00:59:38;;;;;;;6.00;2.63;;;;;;;;;;4937797;29;20297;-76
2023/08/17 01:02:05;;;;;;;6.40;2.43;;;;;;;;;;4947108;28;20202;-76
2023/08/17 01:04:58;;;;;;;3.63;2.20;;;;;;;;;;4938313;29;20203;-76
2023/08/17 01:07:31;;;;;;;6.83;2.40;;;;;;;;;;4940098;29;20227;-76
2023/08/17 01:09:57;;;;;;;5.73;2.60;;;;;;;;;;4923413;29;20340;-74
2023/08/17 01:12:26;;;;;;;5.83;2.17;;;;;;;;;;4954559;29;20239;-74
2023/08/17 01:15:02;;;;;;;5.07;2.87;;;;;;;;;;4954927;29;20322;-74
2023/08/17 01:17:38;;;;;;;6.33;2.63;;;;;;;;;;4938607;29;20190;-74
2023/08/17 01:20:05;;;;;;;5.03;2.60;;;;;;;;;;4959800;28;20203;-74
2023/08/17 01:22:32;;;;;;;4.60;2.20;;;;;;;;;;4976877;28;20194;-74
2023/08/17 01:24:58;;;;;;;8.20;2.60;;;;;;;;;;5000249;28;20200;-76
2023/08/17 01:27:24;;;;;;;5.57;2.87;;;;;;;;;;5009258;28;20231;-76
2023/08/17 01:29:51;;;;;;;5.73;2.73;;;;;;;;;;5034326;28;20185;-76
2023/08/17 01:32:23;;;;;;;7.20;2.50;;;;;;;;;;5016730;28;20181;-76
2023/08/17 01:34:55;;;;;;;5.40;2.47;;;;;;;;;;5006206;28;20181;-76
2023/08/17 01:37:22;;;;;;;6.40;2.60;;;;;;;;;;5016300;28;20184;-76
2023/08/17 01:39:50;;;;;;;5.03;2.67;;;;;;;;;;5016373;28;20223;-76
2023/08/17 01:42:17;;;;;;;4.87;2.73;;;;;;;;;;5033245;28;20180;-80
2023/08/17 01:44:43;;;;;;;5.50;2.83;;;;;;;;;;5016502;28;20191;-80
2023/08/17 01:47:10;;;;;;;7.80;2.70;;;;;;;;;;5016606;28;20212;-80
2023/08/17 01:49:36;;;;;;;5.63;2.70;;;;;;;;;;5013236;28;20195;-80
2023/08/17 01:52:02;;;;;;;6.77;2.90;;;;;;;;;;5016373;28;20211;-80
2023/08/17 01:54:28;;;;;;;5.03;2.77;;;;;;;;;;5015717;28;20184;-80
2023/08/17 01:56:54;;;;;;;6.07;2.53;;;;;;;;;;5016806;28;20192;-80
2023/08/17 01:59:20;;;;;;;6.30;2.70;;;;;;;;;;5016539;28;20240;-75
2023/08/17 02:01:46;;;;;;;6.43;3.20;;;;;;;;;;5000117;28;20200;-75
2023/08/17 02:04:12;;;;;;;5.57;3.20;;;;;;;;;;4999406;28;20185;-75
2023/08/17 02:06:38;;;;;;;6.23;3.00;;;;;;;;;;5015813;28;20215;-75
2023/08/17 02:09:04;;;;;;;6.85;3.00;;;;;;;;;;4999351;28;20424;-75
2023/08/17 02:11:30;;;;;;;11.43;3.37;;;;;;;;;;5019071;28;20184;-75
2023/08/17 02:13:56;;;;;;;8.67;3.00;;;;;;;;;;5005520;28;20229;-75
2023/08/17 02:16:22;;;;;;;6.13;3.00;;;;;;;;;;5018189;28;20231;-76
2023/08/17 02:18:48;;;;;;;6.20;3.00;;;;;;;;;;5036799;28;20246;-76
2023/08/17 02:21:14;;;;;;;4.40;2.57;;;;;;;;;;5019997;28;20192;-76
2023/08/17 02:23:40;;;;;;;5.53;3.10;;;;;;;;;;5020398;28;20199;-76
2023/08/17 02:26:06;;;;;;;8.63;3.10;;;;;;;;;;5036324;22;20196;-84
2023/08/17 02:28:32;;;;;;;5.77;2.90;;;;;;;;;;5055828;28;20180;-85
2023/08/17 02:30:59;;;;;;;9.90;3.30;;;;;;;;;;5048586;28;20226;-80
2023/08/17 02:33:25;;;;;;;6.53;2.80;;;;;;;;;;5034954;28;20184;-79
2023/08/17 02:35:51;;;;;;;6.10;3.20;;;;;;;;;;5059966;28;20183;-79
2023/08/17 02:38:17;;;;;;;6.07;2.90;;;;;;;;;;5073263;28;20184;-80
2023/08/17 02:40:44;;;;;;;6.57;3.20;;;;;;;;;;5061841;28;20194;-80
2023/08/17 02:43:10;;;;;;;5.33;3.00;;;;;;;;;;5069163;28;20233;-80
2023/08/17 02:45:36;;;;;;;7.43;2.90;;;;;;;;;;5068879;28;20188;-80
2023/08/17 02:48:02;;;;;;;7.43;2.93;;;;;;;;;;5039118;28;20218;-77
2023/08/17 02:50:28;;;;;;;6.63;3.03;;;;;;;;;;5058069;28;20183;-77
2023/08/17 02:52:54;;;;;;;7.17;3.20;;;;;;;;;;5038367;28;20206;-77
2023/08/17 02:55:20;;;;;;;6.80;2.73;;;;;;;;;;5058326;28;20331;-77
2023/08/17 02:57:46;;;;;;;6.35;3.00;;;;;;;;;;5053992;28;20586;-77
2023/08/17 03:00:12;;;;;;;4.33;2.60;;;;;;;;;;5054179;28;20330;-76
2023/08/17 03:02:39;;;;;;;6.77;3.00;;;;;;;;;;5066944;28;20180;-77
2023/08/17 03:05:05;;;;;;;7.53;2.90;;;;;;;;;;5052332;28;20215;-83
2023/08/17 03:07:31;;;;;;;6.23;3.00;;;;;;;;;;5041360;28;20211;-83
2023/08/17 03:09:57;;;;;;;5.53;2.83;;;;;;;;;;5056070;28;20447;-82
2023/08/17 03:12:23;;;;;;;5.37;2.97;;;;;;;;;;5068751;28;20187;-82
2023/08/17 03:14:49;;;;;;;6.00;3.10;;;;;;;;;;5059406;28;20182;-83
2023/08/17 03:17:15;;;;;;;10.10;2.97;;;;;;;;;;5059288;28;20180;-83
2023/08/17 03:19:41;;;;;;;7.17;3.40;;;;;;;;;;5042222;28;20189;-83
2023/08/17 03:22:07;;;;;;;6.33;2.87;;;;;;;;;;5045386;28;20192;-80
2023/08/17 03:24:33;;;;;;;9.27;3.20;;;;;;;;;;5067205;28;20188;-80
2023/08/17 03:26:59;;;;;;;6.53;3.20;;;;;;;;;;5035299;28;20239;-80
2023/08/17 03:29:26;;;;;;;6.03;2.90;;;;;;;;;;5062637;28;20219;-80
2023/08/17 03:31:52;;;;;;;6.57;3.20;;;;;;;;;;5055522;28;20241;-80
2023/08/17 03:34:18;;;;;;;4.90;3.00;;;;;;;;;;5037076;28;20184;-80
2023/08/17 03:36:44;;;;;;;5.17;3.20;;;;;;;;;;5054457;28;20415;-80
2023/08/17 03:39:10;;;;;;;5.80;3.03;;;;;;;;;;5053314;28;20187;-83
2023/08/17 03:41:36;;;;;;;7.67;3.13;;;;;;;;;;5059433;28;20211;-83
2023/08/17 03:44:05;;;;;;;7.20;2.80;;;;;;;;;;5046068;28;20233;-83
2023/08/17 03:46:31;;;;;;;8.37;3.20;;;;;;;;;;5073690;28;20222;-81
2023/08/17 03:48:57;;;;;;;6.00;2.80;;;;;;;;;;5043087;28;20192;-84
2023/08/17 03:51:23;;;;;;;10.23;3.57;;;;;;;;;;5056987;28;20199;-84
2023/08/17 03:53:49;;;;;;;7.13;3.43;;;;;;;;;;5028526;28;20432;-84
2023/08/17 03:56:15;;;;;;;9.33;3.47;;;;;;;;;;5057145;28;20431;-80
2023/08/17 03:58:43;;;;;;;5.23;3.33;;;;;;;;;;5067522;28;20221;-80
2023/08/17 04:01:11;;;;;;;11.50;3.30;;;;;;;;;;5069172;28;20220;-81
2023/08/17 04:03:37;;;;;;;6.73;3.20;;;;;;;;;;5071392;28;20246;-80
2023/08/17 04:06:07;;;;;;;8.70;3.17;;;;;;;;;;5068281;28;20188;-80
2023/08/17 04:08:33;;;;;;;5.10;3.10;;;;;;;;;;5054067;28;20199;-80
2023/08/17 04:10:59;;;;;;;8.87;3.63;;;;;;;;;;5050515;28;20176;-78
2023/08/17 04:13:27;;;;;;;8.47;3.20;;;;;;;;;;5055153;28;20196;-78
2023/08/17 04:15:53;;;;;;;6.63;3.30;;;;;;;;;;5056718;28;20184;-78
2023/08/17 04:18:19;;;;;;;6.78;3.22;;;;;;;;;;5044574;28;20430;-78
2023/08/17 04:20:45;;;;;;;6.70;3.60;;;;;;;;;;5070885;28;20479;-78
2023/08/17 04:23:11;;;;;;;8.97;3.47;;;;;;;;;;5063436;28;20241;-78
2023/08/17 04:25:37;;;;;;;6.67;3.13;;;;;;;;;;5057150;28;20208;-78
2023/08/17 04:28:03;;;;;;;6.87;3.13;;;;;;;;;;5057110;28;20317;-81
2023/08/17 04:30:29;;;;;;;6.60;3.10;;;;;;;;;;5050741;28;20276;-81
2023/08/17 04:32:55;;;;;;;6.20;3.30;;;;;;;;;;5039333;28;20217;-81
2023/08/17 04:35:21;;;;;;;5.00;3.07;;;;;;;;;;5053111;28;20194;-81
2023/08/17 04:37:48;;;;;;;10.83;3.63;;;;;;;;;;5056602;28;20277;-81
2023/08/17 04:40:14;;;;;;;6.43;3.40;;;;;;;;;;5055854;28;20191;-82
2023/08/17 04:42:40;;;;;;;7.03;3.70;;;;;;;;;;5070346;28;20191;-81
2023/08/17 04:45:06;;;;;;;6.43;3.20;;;;;;;;;;5051308;28;20184;-81
2023/08/17 04:47:32;;;;;;;6.67;3.10;;;;;;;;;;5070125;28;20322;-81
2023/08/17 04:49:58;;;;;;;6.07;3.23;;;;;;;;;;5066930;28;20187;-81
2023/08/17 04:52:24;;;;;;;7.07;3.10;;;;;;;;;;5050315;28;20236;-81
2023/08/17 04:54:50;;;;;;;6.63;2.97;;;;;;;;;;5048966;28;20180;-81
2023/08/17 04:57:17;;;;;;;9.00;3.27;;;;;;;;;;5053052;28;20184;-81
2023/08/17 04:59:43;;;;;;;5.57;3.07;;;;;;;;;;5069683;28;20208;-81
2023/08/17 05:02:09;;;;;;;10.17;2.93;;;;;;;;;;5025997;28;20201;-78
2023/08/17 05:04:36;;;;;;;6.93;3.10;;;;;;;;;;5070140;28;20221;-78
2023/08/17 05:07:02;;;;;;;9.80;3.10;;;;;;;;;;5037024;28;20219;-78
2023/08/17 05:09:28;;;;;;;7.00;3.05;;;;;;;;;;5040461;28;20421;-78
2023/08/17 05:11:54;;;;;;;8.63;3.20;;;;;;;;;;5040197;28;20179;-78
2023/08/17 05:14:20;;;;;;;7.73;3.33;;;;;;;;;;5037760;28;20175;-77
2023/08/17 05:16:46;;;;;;;5.60;3.20;;;;;;;;;;5069906;28;20188;-78
2023/08/17 05:19:12;;;;;;;9.73;3.20;;;;;;;;;;5036584;28;20191;-81
2023/08/17 05:21:38;;;;;;;5.93;2.90;;;;;;;;;;5073382;28;20184;-81
2023/08/17 05:24:04;;;;;;;7.77;2.70;;;;;;;;;;5072698;28;20179;-81
2023/08/17 05:26:30;;;;;;;6.03;2.83;;;;;;;;;;5039900;28;20281;-81
2023/08/17 05:28:56;;;;;;;5.87;3.00;;;;;;;;;;5031883;28;20188;-81
2023/08/17 05:31:22;;;;;;;5.67;3.00;;;;;;;;;;5050705;28;20194;-80
2023/08/17 05:33:48;;;;;;;7.40;3.07;;;;;;;;;;5051087;28;20216;-80
2023/08/17 05:36:14;;;;;;;7.80;3.20;;;;;;;;;;5036507;28;20251;-80
2023/08/17 05:38:40;;;;;;;6.57;3.03;;;;;;;;;;5036457;28;20184;-81
2023/08/17 05:41:06;;;;;;;7.23;2.97;;;;;;;;;;5036015;28;20179;-80
2023/08/17 05:43:32;;;;;;;9.43;2.90;;;;;;;;;;5036634;28;20187;-81
2023/08/17 05:45:59;;;;;;;6.33;2.90;;;;;;;;;;5032276;28;20199;-80
2023/08/17 05:48:25;;;;;;;5.67;2.77;;;;;;;;;;5049988;28;20183;-80
2023/08/17 05:50:51;;;;;;;6.33;3.20;;;;;;;;;;5049746;28;20184;-78
2023/08/17 05:53:17;;;;;;;4.57;2.50;;;;;;;;;;5054914;28;20188;-78
2023/08/17 05:55:43;;;;;;;7.33;2.83;;;;;;;;;;5074162;28;20183;-78
2023/08/17 05:58:09;;;;;;;6.77;2.70;;;;;;;;;;5070631;28;20259;-78
2023/08/17 06:00:35;;;;;;;6.80;3.03;;;;;;;;;;5051444;28;20279;-78
2023/08/17 06:03:01;;;;;;;7.40;2.87;;;;;;;;;;5053044;28;20237;-78
2023/08/17 06:05:30;;;;;;;4.73;2.73;;;;;;;;;;5039337;28;20191;-78
2023/08/17 06:07:57;;;;;;;6.30;2.90;;;;;;;;;;5036644;28;20208;-81
2023/08/17 06:10:27;;;;;;;6.47;2.67;;;;;;;;;;5074253;28;20175;-81
2023/08/17 06:12:56;;;;;;;6.73;2.83;;;;;;;;;;5073739;28;20186;-81
2023/08/17 06:15:23;;;;;;;4.70;2.70;;;;;;;;;;5052160;28;20211;-81
2023/08/17 06:17:52;;;;;;;6.00;2.90;;;;;;;;;;5053583;28;20175;-81
2023/08/17 06:20:19;;;;;;;5.40;3.13;;;;;;;;;;5044455;28;20180;-81
2023/08/17 06:22:45;;;;;;;4.47;2.90;;;;;;;;;;5068603;28;20198;-82
2023/08/17 06:25:11;;;;;;;9.57;3.10;;;;;;;;;;5067939;28;20248;-80
2023/08/17 06:27:37;;;;;;;5.77;2.90;;;;;;;;;;5073744;28;20302;-80
2023/08/17 06:30:04;;;;;;;4.33;2.50;;;;;;;;;;5053298;28;20275;-79
2023/08/17 06:32:30;;;;;;;6.93;2.97;;;;;;;;;;5071108;28;20179;-79
2023/08/17 06:34:57;;;;;;;5.37;2.80;;;;;;;;;;5073483;28;20188;-80
2023/08/17 06:37:23;;;;;;;14.43;2.93;;;;;;;;;;5056050;28;20175;-80
2023/08/17 06:39:49;;;;;;;6.37;2.73;;;;;;;;;;5055853;28;20187;-80
2023/08/17 06:42:15;;;;;;;6.13;2.60;;;;;;;;;;5055678;28;20333;-78
2023/08/17 06:44:41;;;;;;;5.70;3.03;;;;;;;;;;5055768;28;20234;-79
2023/08/17 06:47:07;;;;;;;5.47;2.53;;;;;;;;;;5056090;28;20342;-78
2023/08/17 06:49:33;;;;;;;9.70;3.10;;;;;;;;;;5055689;28;20198;-79
2023/08/17 06:51:59;;;;;;;4.87;2.60;;;;;;;;;;5048821;28;20188;-78
2023/08/17 06:54:25;;;;;;;6.30;2.70;;;;;;;;;;5050142;28;20307;-79
2023/08/17 06:56:51;;;;;;;6.10;3.00;;;;;;;;;;5065946;28;20234;-78
2023/08/17 06:59:17;;;;;;;6.77;2.80;;;;;;;;;;5071530;28;20192;-78
2023/08/17 07:01:43;;;;;;;7.13;2.90;;;;;;;;;;5054215;28;20203;-79
2023/08/17 07:04:09;;;;;;;6.27;2.80;;;;;;;;;;5056893;28;20192;-78
2023/08/17 07:06:35;;;;;;;5.73;2.90;;;;;;;;;;5054991;28;20215;-78
2023/08/17 07:09:03;;;;;;;5.13;2.83;;;;;;;;;;5055308;28;20192;-79
2023/08/17 07:11:29;;;;;;;7.57;2.80;;;;;;;;;;5063881;28;20188;-79
2023/08/17 07:13:55;;;;;;;7.50;3.20;;;;;;;;;;5072732;28;20176;-79
2023/08/17 07:16:21;;;;;;;6.60;2.80;;;;;;;;;;5075685;28;20222;-79
2023/08/17 07:18:47;;;;;;;5.97;2.80;;;;;;;;;;5059151;28;20266;-79
2023/08/17 07:21:13;;;;;;;9.57;3.00;;;;;;;;;;5057597;28;20275;-79
2023/08/17 07:23:39;;;;;;;6.10;3.10;;;;;;;;;;5058802;28;20272;-79
2023/08/17 07:26:05;;;;;;;7.07;2.80;;;;;;;;;;5058682;28;20187;-79
2023/08/17 07:28:31;;;;;;;5.43;2.67;;;;;;;;;;5055868;28;20180;-79
2023/08/17 07:30:57;;;;;;;6.87;2.80;;;;;;;;;;5055416;28;20267;-83
2023/08/17 07:33:23;;;;;;;7.47;3.00;;;;;;;;;;5058871;28;20182;-83
2023/08/17 07:35:49;;;;;;;7.00;2.93;;;;;;;;;;5055495;28;20176;-83
2023/08/17 07:38:15;;;;;;;6.47;3.03;;;;;;;;;;5057225;28;20187;-83
2023/08/17 07:40:43;;;;;;;6.90;2.80;;;;;;;;;;5055106;28;20184;-83
2023/08/17 07:43:09;;;;;;;5.67;2.57;;;;;;;;;;5054136;28;20180;-83
2023/08/17 07:45:35;;;;;;;6.23;3.17;;;;;;;;;;5058683;28;20265;-83
2023/08/17 07:48:01;;;;;;;8.07;2.90;;;;;;;;;;5058541;28;20215;-79
2023/08/17 07:50:27;;;;;;;7.00;2.97;;;;;;;;;;5050818;28;20176;-79
2023/08/17 07:52:53;;;;;;;5.90;3.00;;;;;;;;;;5058693;28;20171;-79
2023/08/17 07:55:19;;;;;;;6.73;3.00;;;;;;;;;;5058664;28;20260;-79
2023/08/17 07:57:45;;;;;;;6.27;3.10;;;;;;;;;;5058753;28;20180;-79
2023/08/17 08:00:11;;;;;;;7.00;3.03;;;;;;;;;;5058308;28;20191;-79
2023/08/17 08:02:37;;;;;;;7.73;3.17;;;;;;;;;;5058367;28;20210;-79
2023/08/17 08:05:03;;;;;;;9.63;3.60;;;;;;;;;;5058167;28;20198;-81
2023/08/17 08:07:29;;;;;;;7.60;3.47;;;;;;;;;;5058476;28;20305;-80
2023/08/17 08:09:56;;;;;;;5.67;2.90;;;;;;;;;;5075772;28;20218;-79
2023/08/17 08:12:22;;;;;;;6.20;2.97;;;;;;;;;;5058098;28;20179;-79
2023/08/17 08:14:48;;;;;;;4.50;2.70;;;;;;;;;;5058029;28;20176;-81
2023/08/17 08:17:14;;;;;;;4.63;3.13;;;;;;;;;;5057932;28;20215;-81
2023/08/17 08:19:40;;;;;;;7.70;3.13;;;;;;;;;;5054522;28;20190;-81
2023/08/17 08:22:06;;;;;;;8.43;3.30;;;;;;;;;;5052601;28;20192;-79
2023/08/17 08:24:34;;;;;;;8.33;3.30;;;;;;;;;;5054775;28;20184;-79
2023/08/17 08:27:01;;;;;;;10.13;3.37;;;;;;;;;;5050622;28;20258;-79
2023/08/17 08:29:27;;;;;;;6.80;3.13;;;;;;;;;;5075816;28;20191;-79
2023/08/17 08:31:53;;;;;;;6.47;3.40;;;;;;;;;;5054362;28;20253;-79
2023/08/17 08:34:19;;;;;;;5.67;3.30;;;;;;;;;;5055836;28;20176;-79
2023/08/17 08:36:45;;;;;;;8.30;3.50;;;;;;;;;;5057515;28;20210;-79
2023/08/17 08:39:13;;;;;;;5.50;3.17;;;;;;;;;;5055662;28;20184;-84
2023/08/17 08:41:39;;;;;;;5.90;3.30;;;;;;;;;;5053188;28;20199;-85
2023/08/17 08:44:05;;;;;;;9.10;3.70;;;;;;;;;;5068679;28;20191;-85
2023/08/17 08:46:34;;;;;;;6.70;3.33;;;;;;;;;;5044766;28;20253;-85
2023/08/17 08:49:01;;;;;;;12.57;3.70;;;;;;;;;;5070517;28;20203;-85
2023/08/17 08:51:33;;;;;;;9.93;3.77;;;;;;;;;;5062155;28;20208;-85
2023/08/17 08:54:07;;;;;;;6.43;3.20;;;;;;;;;;5073455;28;20214;-85
2023/08/17 08:56:35;;;;;;;5.77;3.37;;;;;;;;;;5069243;28;20187;-85
2023/08/17 08:59:03;;;;;;;10.97;3.80;;;;;;;;;;5073796;28;20194;-85
2023/08/17 09:01:31;;;;;;;8.63;3.63;;;;;;;;;;5042211;28;20206;-84
2023/08/17 09:04:00;;;;;;;8.80;3.80;;;;;;;;;;5064314;28;20184;-85
2023/08/17 09:06:27;;;;;;;7.30;3.53;;;;;;;;;;5050260;28;20244;-84
2023/08/17 09:08:53;;;;;;;9.83;3.90;;;;;;;;;;5043124;28;20262;-84
2023/08/17 09:11:19;;;;;;;7.73;4.07;;;;;;;;;;5056110;28;20188;-79
2023/08/17 09:13:45;;;;;;;9.93;4.33;;;;;;;;;;5064823;28;20267;-77
2023/08/17 09:16:11;;;;;;;8.77;4.10;;;;;;;;;;5047441;28;20229;-78
2023/08/17 09:18:37;;;;;;;9.67;4.00;;;;;;;;;;5072314;28;20194;-78
2023/08/17 09:21:03;;;;;;;8.10;4.47;;;;;;;;;;5049121;28;20185;-79
2023/08/17 09:23:29;;;;;;;9.00;4.70;;;;;;;;;;5042662;28;20282;-79
2023/08/17 09:25:57;;;;;;;7.97;4.70;;;;;;;;;;5049062;28;20262;-79
2023/08/17 09:28:24;;;;;;;13.00;4.90;;;;;;;;;;5045493;28;20357;-83
2023/08/17 09:30:54;;;;;;;8.57;5.50;;;;;;;;;;5059868;28;20183;-84
2023/08/17 09:33:21;;;;;;;10.10;5.30;;;;;;;;;;5055416;28;20184;-83
2023/08/17 09:35:48;;;;;;;13.07;5.20;;;;;;;;;;5061361;28;20179;-83
2023/08/17 09:38:14;;;;;;;8.20;5.30;;;;;;;;;;5061847;28;20193;-83
2023/08/17 09:40:40;;;;;;;11.17;5.43;;;;;;;;;;5053623;28;20211;-83
2023/08/17 09:43:06;;;;;;;11.53;5.20;;;;;;;;;;5070161;22;20227;-89
2023/08/17 09:45:49;;;;;;;10.87;5.23;;;;;;;;;;5045971;28;20183;-90
2023/08/17 09:49:11;;;;;;;;;;;;;;;;;;;;;
2023/08/17 09:51:48;;;;;;;;;;;;;;;;;;;;;
2023/08/17 09:55:00;;;;;;;;;;;;;;;;;;;;;
2023/08/17 09:57:57;;;;;;;;;;;;;;;;;;;;;
2023/08/17 10:00:35;;;;;;;11.63;5.60;;;;;;;;;;5004455;28;20201;-89
2023/08/17 10:25:13;;;;;;;;;;;;;;;;;;;;;
2023/08/17 10:28:18;;;;;;;;;;;;;;;;;;;;;
2023/08/17 11:47:02;;;;;;;10.47;6.37;;;;;;;;;;4807057;29;20212;-91
2023/08/17 11:56:16;;;;;;;8.20;6.37;;;;;;;;;;4806889;29;20208;-92
2023/08/17 12:08:26;;;;;;;;;;;;;;;;;;;;;
2023/08/17 12:17:21;;;;;;;12.03;7.47;;;;;;;;;;4898858;29;20220;-91
2023/08/17 12:19:54;;;;;;;11.30;6.60;;;;;;;;;;4942252;28;20272;-91
2023/08/17 12:22:20;;;;;;;10.33;6.90;;;;;;;;;;4997435;28;20241;-90
2023/08/17 12:24:54;;;;;;;13.63;7.17;;;;;;;;;;4997947;28;20185;-92
2023/08/17 12:27:39;;;;;;;12.17;7.00;;;;;;;;;;5011868;28;20239;-89
2023/08/17 12:30:36;;;;;;;10.47;7.40;;;;;;;;;;5044089;28;20191;-90
2023/08/17 12:33:38;;;;;;;;;;;;;;;;;;;;;
2023/08/17 12:36:20;;;;;;;;;;;;;;;;;;;;;
2023/08/17 12:39:13;;;;;;;10.47;7.87;;;;;;;;;;5058388;28;20175;-90
2023/08/17 12:41:52;;;;;;;9.30;7.10;;;;;;;;;;5049793;28;20191;-90
2023/08/17 12:44:39;;;;;;;9.50;7.20;;;;;;;;;;5056500;28;20262;-91
2023/08/17 12:47:17;;;;;;;9.60;7.40;;;;;;;;;;5051082;28;20213;-91
2023/08/17 12:49:49;;;;;;;12.10;7.13;;;;;;;;;;5054415;28;20226;-91
2023/08/17 12:52:20;;;;;;;12.87;7.27;;;;;;;;;;5073083;28;20201;-92
2023/08/17 12:55:15;;;;;;;9.90;6.87;;;;;;;;;;5075934;28;20189;-91
2023/08/17 13:27:53;;;;;;;9.20;6.18;;;;;;;;;;4855399;29;20291;-88
2023/08/17 13:31:24;;;;;;;9.40;6.40;;;;;;;;;;4843520;29;20195;-91
2023/08/17 13:34:22;;;;;;;;;;;;;;;;;;;;;
2023/08/17 13:37:14;;;;;;;7.10;6.33;;;;;;;;;;4882522;29;20195;-90
2023/08/17 13:39:58;;;;;;;;;;;;;;;;;;;;;
2023/08/17 13:52:34;;;;;;;;;;;;;;;;;;;;;
2023/08/17 13:55:09;;;;;;;11.32;7.57;;;;;;;;;;4878100;29;20186;-90
2023/08/17 13:57:47;;;;;;;10.80;8.65;;;;;;;;;;4902221;29;20231;-91
2023/08/17 14:01:07;;;;;;;9.70;8.70;;;;;;;;;;4909353;29;20195;-91
2023/08/17 14:03:46;;;;;;;11.40;8.15;;;;;;;;;;4842303;29;20192;-90
2023/08/17 14:06:31;;;;;;;9.23;8.33;;;;;;;;;;4856407;29;20212;-92
2023/08/17 14:09:20;;;;;;;10.07;8.18;;;;;;;;;;4866417;29;20201;-92
2023/08/17 14:12:04;;;;;;;7.78;6.78;;;;;;;;;;4894691;29;20197;-92
2023/08/17 14:15:17;;;;;;;8.65;7.78;;;;;;;;;;4889671;29;20197;-93
2023/08/17 14:17:54;;;;;;;11.13;8.00;;;;;;;;;;4937239;28;20303;-92
2023/08/17 14:21:11;;;;;;;;;;;;;;;;;;;;;
2023/08/17 14:23:52;;;;;;;10.63;9.60;;;;;;;;;;5075319;28;20272;-93
2023/08/17 14:26:25;;;;;;;9.90;9.00;;;;;;;;;;5055481;28;20191;-93
2023/08/17 14:37:57;;;;;;;11.30;10.20;;;;;;;;;;5085126;28;20193;-90
2023/08/17 14:40:32;;;;;;;10.38;9.35;;;;;;;;;;5095200;28;20181;-90
2023/08/17 14:46:24;;;;;;;;;;;;;;;;;;;;;
2023/08/17 14:49:37;;;;;;;12.10;10.90;;;;;;;;;;5062939;28;20211;-89
2023/08/17 14:52:03;;;;;;;13.27;11.35;;;;;;;;;;5055015;28;20235;-90
2023/08/17 14:54:29;;;;;;;12.60;11.03;;;;;;;;;;5075918;28;20171;-89
2023/08/17 14:57:06;;;;;;;12.50;11.38;;;;;;;;;;5075221;28;20433;-88
2023/08/17 15:12:06;;;;;;;15.32;13.70;;;;;;;;;;5067786;28;20183;-89
2023/08/17 15:50:13;;;;;;;14.33;12.93;;;;;;;;;;4916354;29;20239;-89
2023/08/17 15:53:08;;;;;;;16.15;14.40;;;;;;;;;;4882218;29;20214;-92
2023/08/17 15:58:49;;;;;;;14.55;13.25;;;;;;;;;;4897825;29;20185;-84
2023/08/17 16:01:18;;;;;;;14.73;13.18;;;;;;;;;;4935350;29;20196;-84
2023/08/17 16:03:45;;;;;;;15.70;14.30;;;;;;;;;;4952077;28;20185;-83
2023/08/17 16:06:11;;;;;;;15.80;12.95;;;;;;;;;;4997974;28;20177;-83
2023/08/17 16:08:37;;;;;;;14.35;12.95;;;;;;;;;;5053860;28;20313;-83
2023/08/17 16:11:03;;;;;;;15.07;13.48;;;;;;;;;;5074870;28;20171;-82
2023/08/17 16:13:29;;;;;;;16.95;13.82;;;;;;;;;;5058297;28;20285;-84
2023/08/17 16:15:56;;;;;;;13.95;12.68;;;;;;;;;;5057491;28;20183;-80
2023/08/17 16:18:22;;;;;;;14.73;13.20;;;;;;;;;;5077149;28;20180;-80
2023/08/17 16:20:48;;;;;;;14.90;13.32;;;;;;;;;;5072450;28;20179;-81
2023/08/17 16:23:16;;;;;;;14.02;12.77;;;;;;;;;;5070201;28;20174;-82
2023/08/17 16:25:42;;;;;;;15.32;13.98;;;;;;;;;;5077641;28;20202;-82
2023/08/17 16:28:11;;;;;;;15.48;13.90;;;;;;;;;;5077147;28;20252;-82
2023/08/17 16:30:39;;;;;;;16.13;14.60;;;;;;;;;;5076390;28;20182;-81
2023/08/17 16:33:05;;;;;;;15.40;13.90;;;;;;;;;;5077246;28;20166;-83
2023/08/17 16:35:35;;;;;;;16.35;14.75;;;;;;;;;;5077047;28;20183;-81
2023/08/17 16:38:02;;;;;;;16.92;15.20;;;;;;;;;;5076442;28;20183;-82
2023/08/17 16:40:28;;;;;;;17.50;15.68;;;;;;;;;;5077113;28;20206;-82
2023/08/17 16:42:56;;;;;;;17.40;15.80;;;;;;;;;;5076946;28;20171;-83
2023/08/17 16:45:22;;;;;;;17.40;15.70;;;;;;;;;;5076857;28;20167;-82
2023/08/17 16:47:48;;;;;;;17.67;15.82;;;;;;;;;;5076873;28;20240;-82
2023/08/17 16:50:17;;;;;;;16.90;15.20;;;;;;;;;;5076718;28;20226;-82
2023/08/17 16:52:43;;;;;;;18.13;16.43;;;;;;;;;;5076693;28;20290;-81
2023/08/17 16:55:09;;;;;;;16.97;15.37;;;;;;;;;;5076853;28;20177;-83
2023/08/17 16:57:35;;;;;;;18.60;16.75;;;;;;;;;;5075456;28;20186;-81
2023/08/17 17:00:01;;;;;;;21.57;17.60;;;;;;;;;;5073863;28;20218;-80
2023/08/17 17:02:27;;;;;;;19.47;17.67;;;;;;;;;;5057363;28;20191;-81
2023/08/17 17:04:53;;;;;;;18.30;16.57;;;;;;;;;;5051859;28;20179;-81
2023/08/17 17:07:19;;;;;;;19.17;17.17;;;;;;;;;;5056497;28;20215;-81
2023/08/17 17:09:46;;;;;;;18.67;16.80;;;;;;;;;;5058725;28;20190;-81
2023/08/17 17:12:12;;;;;;;18.50;16.70;;;;;;;;;;5072807;28;20179;-81
2023/08/17 17:14:39;;;;;;;19.10;17.20;;;;;;;;;;5056323;28;20176;-81
2023/08/17 17:17:05;;;;;;;18.93;17.00;;;;;;;;;;5053194;28;20195;-81
2023/08/17 17:19:31;;;;;;;17.88;16.10;;;;;;;;;;5056139;28;20249;-82
2023/08/17 17:21:57;;;;;;;19.27;17.40;;;;;;;;;;5056634;28;20175;-80
2023/08/17 17:24:23;;;;;;;20.02;18.02;;;;;;;;;;5070556;28;20190;-81
2023/08/17 17:26:49;;;;;;;17.95;16.38;;;;;;;;;;5075513;28;20217;-81
2023/08/17 17:29:18;;;;;;;20.40;17.37;;;;;;;;;;5072961;28;20167;-81
2023/08/17 17:31:44;;;;;;;17.88;16.08;;;;;;;;;;5056097;28;20187;-81
2023/08/17 17:34:10;;;;;;;18.13;16.27;;;;;;;;;;5053654;28;20275;-81
2023/08/17 17:36:36;;;;;;;19.17;17.17;;;;;;;;;;5048867;28;20182;-81
2023/08/17 17:39:03;;;;;;;18.67;16.77;;;;;;;;;;5056346;28;20190;-80
2023/08/17 17:41:29;;;;;;;17.35;15.77;;;;;;;;;;5055875;28;20231;-81
2023/08/17 17:43:55;;;;;;;18.73;16.83;;;;;;;;;;5062710;28;20214;-81
2023/08/17 17:46:21;;;;;;;18.65;16.55;;;;;;;;;;5068971;28;20180;-82
2023/08/17 17:48:50;;;;;;;18.63;16.52;;;;;;;;;;5066976;28;20211;-81
2023/08/17 17:51:17;;;;;;;19.27;16.92;;;;;;;;;;5065928;28;20279;-81
2023/08/17 17:53:43;;;;;;;17.53;15.73;;;;;;;;;;5074912;28;20211;-83
2023/08/17 17:56:12;;;;;;;18.70;16.98;;;;;;;;;;5075995;28;20174;-81
2023/08/17 17:58:38;;;;;;;18.43;16.73;;;;;;;;;;5075928;28;20178;-83
2023/08/17 18:01:08;;;;;;;21.00;16.07;;;;;;;;;;5074135;28;20190;-82
2023/08/17 18:03:34;;;;;;;18.00;16.30;;;;;;;;;;5076015;28;20179;-83
2023/08/17 18:06:00;;;;;;;17.97;16.17;;;;;;;;;;5075907;28;20182;-83
2023/08/17 18:08:26;;;;;;;17.80;16.10;;;;;;;;;;5073143;28;20198;-83
2023/08/17 18:10:54;;;;;;;17.60;15.90;;;;;;;;;;5076046;28;20179;-83
2023/08/17 18:13:22;;;;;;;17.97;16.17;;;;;;;;;;5073874;28;20189;-82
2023/08/17 18:15:48;;;;;;;17.90;16.10;;;;;;;;;;5075625;28;20259;-83
2023/08/17 18:18:14;;;;;;;17.20;15.60;;;;;;;;;;5075896;28;20194;-82
2023/08/17 18:20:40;;;;;;;16.70;15.00;;;;;;;;;;5065140;28;20212;-83
2023/08/17 18:23:06;;;;;;;19.43;15.33;;;;;;;;;;5055849;28;20205;-82
2023/08/17 18:25:32;;;;;;;16.13;14.52;;;;;;;;;;5056009;28;20184;-83
2023/08/17 18:27:58;;;;;;;19.52;15.32;;;;;;;;;;5055706;28;20278;-83
2023/08/17 18:30:24;;;;;;;17.67;15.70;;;;;;;;;;5065647;28;20217;-82
2023/08/17 18:32:51;;;;;;;16.23;14.73;;;;;;;;;;5074677;28;20186;-83
2023/08/17 18:35:17;;;;;;;16.03;14.53;;;;;;;;;;5075554;28;20184;-81
2023/08/17 18:37:43;;;;;;;16.40;14.80;;;;;;;;;;5058010;28;20190;-83
2023/08/17 18:40:09;;;;;;;16.90;15.23;;;;;;;;;;5072284;28;20425;-81
2023/08/17 18:42:35;;;;;;;16.27;14.73;;;;;;;;;;5072872;28;20252;-84
2023/08/17 18:45:01;;;;;;;15.90;14.13;;;;;;;;;;5072535;28;20411;-81
2023/08/17 18:47:27;;;;;;;15.33;13.50;;;;;;;;;;5056066;28;20211;-82
2023/08/17 18:49:53;;;;;;;16.87;13.90;;;;;;;;;;5058764;28;20321;-82
2023/08/17 18:52:19;;;;;;;14.97;13.60;;;;;;;;;;5093181;28;20194;-82
2023/08/17 18:55:02;;;;;;;16.20;13.10;;;;;;;;;;5091933;28;20179;-82